Shin-oh Maru — JG5594 — position and weather

sailwx.info

Track history (hours):
 
Tides and Currents Weather Stations Pressure Air Temp Water Temp Dewpoint Dewpoint Depression Visibility Wind Speed Wind Dir Waves Ship Positions

Shin-oh Maru

Last reported at 2015-Feb-26 16:27 UTC. Time now 2015-Feb-28 17:31 UTC.
Position N 34°52' E 139°49'.

Length 161 m; draft 7 m.

Type: Ship (hazmat cat A). MMSI: 431100859.

Date/timePositionNaut miles runAvg speedWind from/ knotsBaromVisibWave heightAir tempDewpointWater temp
2015-Feb-26 16:27N 34°52' E 139°49'1719.0
2015-Feb-26 15:33N 35°08' E 139°45'1514.8
2015-Feb-26 14:33N 35°23' E 139°42'1413.7
2015-Feb-26 13:33N 35°36' E 139°46'1 0.1
2015-Feb-26 08:32N 35°37' E 139°46'1212.4
2015-Feb-26 07:33N 35°25' E 139°47'1111.3
2015-Feb-26 06:33N 35°14' E 139°47'1616.2
2015-Feb-26 05:33N 34°58' E 139°44'  
2015-Feb-23 15:33N 35°12' E 139°46'1413.8
2015-Feb-23 14:33N 35°25' E 139°44'1212.2
2015-Feb-23 13:33N 35°38' E 139°46'0 0.0
2015-Feb-22 09:27N 35°38' E 139°46'8 8.7
2015-Feb-22 08:33N 35°32' E 139°52'1414.0
2015-Feb-22 07:34N 35°20' E 139°44'1714.7
2015-Feb-22 06:26N 35°03' E 139°45'  
2015-Feb-19 17:30N 34°55' E 140°06'1616.5
2015-Feb-19 16:33N 34°51' E 139°48'1818.7
2015-Feb-19 15:33N 35°09' E 139°44'1414.0
2015-Feb-19 14:33N 35°23' E 139°42'1413.8
2015-Feb-19 13:33N 35°36' E 139°46'1 0.3
2015-Feb-19 08:04N 35°38' E 139°46'4 8.2
2015-Feb-19 07:33N 35°34' E 139°49'1313.3
2015-Feb-19 06:33N 35°21' E 139°45'1212.3
2015-Feb-19 05:33N 35°09' E 139°47'  
Track history (hours):
 
Tides and Currents Weather Stations Pressure Air Temp Water Temp Dewpoint Dewpoint Depression Visibility Wind Speed Wind Dir Waves Ship Positions

Shin-oh Maru

Last reported at 2015-Feb-26 16:27 UTC. Time now 2015-Feb-28 17:31 UTC.
Position N 34°52' E 139°49'.

Length 161 m; draft 7 m.

Type: Ship (hazmat cat A). MMSI: 431100859.

Date/timePositionNaut miles runAvg speedWind from/ knotsBaromVisibWave heightAir tempDewpointWater temp
2015-Feb-26 16:27N 34°52' E 139°49'1719.0
2015-Feb-26 15:33N 35°08' E 139°45'1514.8
2015-Feb-26 14:33N 35°23' E 139°42'1413.7
2015-Feb-26 13:33N 35°36' E 139°46'1 0.1
2015-Feb-26 08:32N 35°37' E 139°46'1212.4
2015-Feb-26 07:33N 35°25' E 139°47'1111.3
2015-Feb-26 06:33N 35°14' E 139°47'1616.2
2015-Feb-26 05:33N 34°58' E 139°44'  
2015-Feb-23 15:33N 35°12' E 139°46'1413.8
2015-Feb-23 14:33N 35°25' E 139°44'1212.2
2015-Feb-23 13:33N 35°38' E 139°46'0 0.0
2015-Feb-22 09:27N 35°38' E 139°46'8 8.7
2015-Feb-22 08:33N 35°32' E 139°52'1414.0
2015-Feb-22 07:34N 35°20' E 139°44'1714.7
2015-Feb-22 06:26N 35°03' E 139°45'  
2015-Feb-19 17:30N 34°55' E 140°06'1616.5
2015-Feb-19 16:33N 34°51' E 139°48'1818.7
2015-Feb-19 15:33N 35°09' E 139°44'1414.0
2015-Feb-19 14:33N 35°23' E 139°42'1413.8
2015-Feb-19 13:33N 35°36' E 139°46'1 0.3
2015-Feb-19 08:04N 35°38' E 139°46'4 8.2
2015-Feb-19 07:33N 35°34' E 139°49'1313.3
2015-Feb-19 06:33N 35°21' E 139°45'1212.3
2015-Feb-19 05:33N 35°09' E 139°47'  

Dump ship's entire track history